Greifswald — 3FEC8 — position and weather

sailwx.info

Track history (hours):
 
Tides and Currents Weather Stations Pressure Air Temp Water Temp Dewpoint Dewpoint Depression Visibility Wind Speed Wind Dir Waves Ship Positions

Greifswald

Last reported at 2016-Aug-22 18:34 UTC. Time now 2016-Aug-25 09:46 UTC.
Position N 43°43' E 034°60'.

Length 191 m; draft 6.6 m.

Type: Ship. MMSI: 370492000.

Date/timePositionNaut miles runAvg speedWind from/ knotsBaromVisibWave heightAir tempDewpointWater temp
2016-Aug-22 18:34N 43°43' E 034°60'1413.7
2016-Aug-22 17:34N 43°48' E 034°42'1613.8
2016-Aug-22 16:24N 43°55' E 034°22'6313.0
2016-Aug-22 11:32N 44°30' E 033°09'4313.9
2016-Aug-22 08:27N 45°02' E 032°29'1213.6
2016-Aug-22 07:33N 45°11' E 032°17'1413.8
2016-Aug-22 06:31N 45°22' E 032°03'1313.5
2016-Aug-22 05:34N 45°31' E 031°51'1313.2
2016-Aug-22 04:33N 45°40' E 031°37'1313.4
2016-Aug-22 03:33N 45°50' E 031°25'1313.2
2016-Aug-22 02:33N 46°01' E 031°13'1313.1
2016-Aug-22 01:34N 46°10' E 031°00'1212.2
2016-Aug-22 00:33N 46°17' E 030°46'6 5.5
2016-Aug-21 23:32N 46°21' E 030°39'0 0.0
2016-Aug-21 22:33N 46°21' E 030°39'39 2.8
2016-Aug-21 08:33N 45°57' E 031°24'15413.7
2016-Aug-20 21:21N 44°07' E 033°55'1714.6
2016-Aug-20 20:11N 44°02' E 034°18'914.5
2016-Aug-20 19:33N 43°59' E 034°29'1514.4
2016-Aug-20 18:33N 43°54' E 034°48'1414.4
2016-Aug-20 17:33N 43°49' E 035°07'2114.3
2016-Aug-20 16:06N 43°42' E 035°34'1014.2
2016-Aug-20 15:23N 43°39' E 035°48'2614.2
2016-Aug-20 13:32N 43°30' E 036°22'  
2016-Aug-17 23:22N 43°38' E 035°42'1311.8
2016-Aug-17 22:14N 43°42' E 035°24'811.8
2016-Aug-17 21:33N 43°45' E 035°14'1211.5
2016-Aug-17 20:33N 43°48' E 034°59'1111.4
2016-Aug-17 19:33N 43°52' E 034°44'1111.1
2016-Aug-17 18:33N 43°56' E 034°29'6110.0
2016-Aug-17 12:31N 44°25' E 033°15'1212.3
2016-Aug-17 11:33N 44°34' E 033°04'1212.2
2016-Aug-17 10:33N 44°43' E 032°53'10811.6
2016-Aug-17 01:14N 46°03' E 031°10'18 1.1
2016-Aug-16 08:30N 46°17' E 030°52'4911.9
2016-Aug-16 04:26N 45°43' E 031°42'8412.1
2016-Aug-15 21:30N 44°40' E 033°01'1111.6
2016-Aug-15 20:31N 44°32' E 033°11'  
Track history (hours):
 
Tides and Currents Weather Stations Pressure Air Temp Water Temp Dewpoint Dewpoint Depression Visibility Wind Speed Wind Dir Waves Ship Positions

Greifswald

Last reported at 2016-Aug-22 18:34 UTC. Time now 2016-Aug-25 09:46 UTC.
Position N 43°43' E 034°60'.

Length 191 m; draft 6.6 m.

Type: Ship. MMSI: 370492000.

Date/timePositionNaut miles runAvg speedWind from/ knotsBaromVisibWave heightAir tempDewpointWater temp
2016-Aug-22 18:34N 43°43' E 034°60'1413.7
2016-Aug-22 17:34N 43°48' E 034°42'1613.8
2016-Aug-22 16:24N 43°55' E 034°22'6313.0
2016-Aug-22 11:32N 44°30' E 033°09'4313.9
2016-Aug-22 08:27N 45°02' E 032°29'1213.6
2016-Aug-22 07:33N 45°11' E 032°17'1413.8
2016-Aug-22 06:31N 45°22' E 032°03'1313.5
2016-Aug-22 05:34N 45°31' E 031°51'1313.2
2016-Aug-22 04:33N 45°40' E 031°37'1313.4
2016-Aug-22 03:33N 45°50' E 031°25'1313.2
2016-Aug-22 02:33N 46°01' E 031°13'1313.1
2016-Aug-22 01:34N 46°10' E 031°00'1212.2
2016-Aug-22 00:33N 46°17' E 030°46'6 5.5
2016-Aug-21 23:32N 46°21' E 030°39'0 0.0
2016-Aug-21 22:33N 46°21' E 030°39'39 2.8
2016-Aug-21 08:33N 45°57' E 031°24'15413.7
2016-Aug-20 21:21N 44°07' E 033°55'1714.6
2016-Aug-20 20:11N 44°02' E 034°18'914.5
2016-Aug-20 19:33N 43°59' E 034°29'1514.4
2016-Aug-20 18:33N 43°54' E 034°48'1414.4
2016-Aug-20 17:33N 43°49' E 035°07'2114.3
2016-Aug-20 16:06N 43°42' E 035°34'1014.2
2016-Aug-20 15:23N 43°39' E 035°48'2614.2
2016-Aug-20 13:32N 43°30' E 036°22'  
2016-Aug-17 23:22N 43°38' E 035°42'1311.8
2016-Aug-17 22:14N 43°42' E 035°24'811.8
2016-Aug-17 21:33N 43°45' E 035°14'1211.5
2016-Aug-17 20:33N 43°48' E 034°59'1111.4
2016-Aug-17 19:33N 43°52' E 034°44'1111.1
2016-Aug-17 18:33N 43°56' E 034°29'6110.0
2016-Aug-17 12:31N 44°25' E 033°15'1212.3
2016-Aug-17 11:33N 44°34' E 033°04'1212.2
2016-Aug-17 10:33N 44°43' E 032°53'10811.6
2016-Aug-17 01:14N 46°03' E 031°10'18 1.1
2016-Aug-16 08:30N 46°17' E 030°52'4911.9
2016-Aug-16 04:26N 45°43' E 031°42'8412.1
2016-Aug-15 21:30N 44°40' E 033°01'1111.6
2016-Aug-15 20:31N 44°32' E 033°11'  

Dump ship's entire track history